Cutler Bay, Florida
Current Conditions -  °F | °C
As of 10:53 PM on Thursday 20 Nov 2014 (Local Time) from KTMB Reporting Station
Overcast Overcast  
Wind Chill: 73°   Ceiling: 4700
Heat Index: 73°   Visibility: 10mi
Dew Point: 63°   Wind: 10mph
Humidity: 71%   Direction: 70°ENE
Pressure: 30.14"   Gusts: NA
Location:  25.5586°N, 80.4556°W
Report Text: KTMB 210353Z AUTO 07009KT 10SM OVC047 23/17 A3014 RMK AO2 SLP204 T02280172
Loading
Personal Weather Stations






























Interactive Weather Map New forecast layout! Learn more

10-Day Weather Forecast

Advertisements
Track Severe Weather on mobile